createdAt,value
2023-01-06T00:00:23.895Z,100.00
2023-01-06T00:02:25.401Z,100.00
2023-01-06T00:04:27.627Z,100.00
2023-01-06T00:06:31.147Z,100.00
2023-01-06T00:08:34.634Z,100.00
2023-01-06T00:10:36.804Z,100.00
2023-01-06T00:12:38.510Z,100.00
2023-01-06T00:14:42.560Z,100.00
2023-01-06T00:16:44.037Z,100.00
2023-01-06T00:18:46.172Z,100.00
2023-01-06T00:20:47.637Z,100.00
2023-01-06T00:22:49.088Z,100.00
2023-01-06T00:24:50.545Z,100.00
2023-01-06T00:26:52.000Z,100.00
2023-01-06T00:28:54.844Z,100.00
2023-01-06T00:30:56.409Z,100.00
2023-01-06T00:32:57.882Z,100.00
2023-01-06T00:34:59.388Z,100.00
2023-01-06T00:37:00.905Z,100.00
2023-01-06T00:39:02.589Z,100.00
2023-01-06T00:41:33.187Z,100.00
2023-01-06T00:43:34.635Z,100.00
2023-01-06T00:45:36.083Z,100.00
2023-01-06T00:47:37.532Z,100.00
2023-01-06T00:49:39.004Z,100.00
2023-01-06T00:51:41.102Z,100.00
2023-01-06T00:53:42.557Z,100.00
2023-01-06T00:55:44.055Z,100.00
2023-01-06T00:57:45.489Z,100.00
2023-01-06T00:59:47.073Z,100.00
2023-01-06T01:01:50.950Z,100.00
2023-01-06T01:03:52.491Z,100.00
2023-01-06T01:05:59.546Z,100.00
2023-01-06T01:08:01.188Z,100.00
2023-01-06T01:10:03.255Z,100.00
2023-01-06T01:12:11.983Z,100.00
2023-01-06T01:14:16.280Z,100.00
2023-01-06T01:16:17.741Z,100.00
2023-01-06T01:18:19.201Z,100.00
2023-01-06T01:20:20.657Z,100.00
2023-01-06T01:22:23.720Z,100.00
2023-01-06T01:24:25.345Z,100.00
2023-01-06T01:26:26.829Z,100.00
2023-01-06T01:28:28.271Z,100.00
2023-01-06T01:30:29.705Z,100.00
2023-01-06T01:32:31.171Z,100.00
2023-01-06T01:34:33.235Z,100.00
2023-01-06T01:36:34.731Z,100.00
2023-01-06T01:38:36.475Z,100.00
2023-01-06T01:40:37.906Z,100.00
2023-01-06T01:42:39.407Z,100.00
2023-01-06T01:44:56.135Z,100.00
2023-01-06T01:46:57.978Z,100.00
2023-01-06T01:49:03.965Z,100.00
2023-01-06T01:51:11.581Z,100.00
2023-01-06T01:53:23.936Z,100.00
2023-01-06T01:55:27.921Z,100.00
2023-01-06T01:57:37.903Z,100.00
2023-01-06T01:59:42.123Z,100.00
2023-01-06T02:01:44.620Z,100.00
2023-01-06T02:03:46.260Z,100.00
2023-01-06T02:05:57.560Z,100.00
2023-01-06T02:08:04.030Z,100.00
2023-01-06T02:10:20.595Z,100.00
2023-01-06T02:12:22.075Z,100.00
2023-01-06T02:14:29.177Z,100.00
2023-01-06T02:16:40.416Z,100.00
2023-01-06T02:19:22.603Z,100.00
2023-01-06T02:21:42.270Z,100.00
2023-01-06T02:24:08.073Z,100.00
2023-01-06T02:26:37.172Z,100.00
2023-01-06T02:29:14.546Z,100.00
2023-01-06T02:31:30.308Z,100.00
2023-01-06T02:33:34.591Z,100.00
2023-01-06T02:36:00.322Z,100.00
2023-01-06T02:38:23.660Z,100.00
2023-01-06T02:41:03.352Z,100.00
2023-01-06T02:43:46.802Z,100.00
2023-01-06T02:46:08.225Z,100.00
2023-01-06T02:48:34.203Z,100.00
2023-01-06T02:50:46.260Z,100.00
2023-01-06T02:52:57.866Z,100.00
2023-01-06T02:55:02.859Z,100.00
2023-01-06T02:57:14.173Z,100.00
2023-01-06T02:59:30.806Z,100.00
2023-01-06T03:01:38.561Z,100.00
2023-01-06T03:03:44.755Z,100.00
2023-01-06T03:05:51.988Z,100.00
2023-01-06T03:07:55.175Z,100.00
2023-01-06T03:09:59.654Z,100.00
2023-01-06T03:12:08.211Z,100.00
2023-01-06T03:14:15.392Z,100.00
2023-01-06T03:16:17.179Z,100.00
2023-01-06T03:18:18.880Z,100.00
2023-01-06T03:20:20.969Z,100.00
2023-01-06T03:22:24.040Z,100.00
2023-01-06T03:24:25.817Z,100.00
2023-01-06T03:26:27.584Z,100.00
2023-01-06T03:28:29.070Z,100.00
2023-01-06T03:30:48.162Z,100.00
2023-01-06T03:33:10.917Z,100.00
2023-01-06T03:35:28.179Z,100.00
2023-01-06T03:38:08.028Z,100.00
2023-01-06T03:40:20.054Z,100.00
2023-01-06T03:42:54.663Z,100.00
2023-01-06T03:45:22.183Z,100.00
2023-01-06T03:47:32.663Z,100.00
2023-01-06T03:49:54.595Z,100.00
2023-01-06T03:52:24.782Z,100.00
2023-01-06T03:54:44.364Z,100.00
2023-01-06T03:56:51.162Z,100.00
2023-01-06T03:58:57.416Z,100.00
2023-01-06T04:01:03.151Z,100.00
2023-01-06T04:03:11.547Z,100.00
2023-01-06T04:05:14.911Z,100.00
2023-01-06T04:07:16.369Z,100.00
2023-01-06T04:09:17.886Z,100.00
2023-01-06T04:11:38.016Z,100.00
2023-01-06T04:13:39.497Z,100.00
2023-01-06T04:15:41.053Z,100.00
2023-01-06T04:17:43.734Z,100.00
2023-01-06T04:19:45.265Z,100.00
2023-01-06T04:21:46.726Z,100.00
2023-01-06T04:23:48.195Z,100.00
2023-01-06T04:25:49.680Z,100.00
2023-01-06T04:27:52.003Z,100.00
2023-01-06T04:29:53.627Z,100.00
2023-01-06T04:31:55.247Z,100.00
2023-01-06T04:33:56.805Z,100.00
2023-01-06T04:35:58.267Z,100.00
2023-01-06T04:38:03.265Z,100.00
2023-01-06T04:40:06.480Z,100.00
2023-01-06T04:42:07.994Z,100.00
2023-01-06T04:44:09.488Z,100.00
2023-01-06T04:46:11.052Z,100.00
2023-01-06T04:48:13.903Z,100.00
2023-01-06T04:50:15.491Z,100.00
2023-01-06T04:52:17.039Z,100.00
2023-01-06T04:54:18.674Z,100.00
2023-01-06T04:56:20.145Z,100.00
2023-01-06T04:58:21.625Z,100.00
2023-01-06T05:00:23.384Z,100.00
2023-01-06T05:02:24.854Z,100.00
2023-01-06T05:04:28.364Z,100.00
2023-01-06T05:06:31.582Z,100.00
2023-01-06T05:08:33.149Z,100.00
2023-01-06T05:10:34.609Z,100.00
2023-01-06T05:12:36.693Z,100.00
2023-01-06T05:14:38.161Z,100.00
2023-01-06T05:16:39.919Z,100.00
2023-01-06T05:18:41.447Z,100.00
2023-01-06T05:20:42.948Z,100.00
2023-01-06T05:22:44.455Z,100.00
2023-01-06T05:24:46.063Z,100.00
2023-01-06T05:26:47.558Z,100.00
2023-01-06T05:28:49.348Z,100.00
2023-01-06T05:30:50.955Z,100.00
2023-01-06T05:32:52.417Z,100.00
2023-01-06T05:34:53.897Z,100.00
2023-01-06T05:36:56.523Z,100.00
2023-01-06T05:38:58.022Z,100.00
2023-01-06T05:40:59.500Z,100.00
2023-01-06T05:43:01.051Z,100.00
2023-01-06T05:45:02.565Z,100.00
2023-01-06T05:47:04.082Z,100.00
2023-01-06T05:49:05.584Z,100.00
2023-01-06T05:51:09.951Z,100.00
2023-01-06T05:53:11.425Z,99.63
2023-01-06T05:55:12.910Z,100.00
2023-01-06T05:57:14.419Z,100.00
2023-01-06T05:59:16.020Z,99.80
2023-01-06T06:01:26.250Z,99.60
2023-01-06T06:03:27.886Z,99.70
2023-01-06T06:05:29.448Z,99.64
2023-01-06T06:07:30.920Z,99.58
2023-01-06T06:09:32.489Z,99.45
2023-01-06T06:11:34.014Z,99.11
2023-01-06T06:13:36.116Z,99.18
2023-01-06T06:15:37.664Z,99.04
2023-01-06T06:17:39.120Z,99.05
2023-01-06T06:19:40.552Z,98.65
2023-01-06T06:21:42.015Z,98.37
2023-01-06T06:23:43.849Z,98.50
2023-01-06T06:25:45.317Z,97.92
2023-01-06T06:27:46.804Z,97.61
2023-01-06T06:29:48.267Z,97.38
2023-01-06T06:31:49.741Z,97.46
2023-01-06T06:33:53.119Z,97.03
2023-01-06T06:35:58.405Z,97.18
2023-01-06T06:37:59.885Z,97.18
2023-01-06T06:40:01.442Z,96.97
2023-01-06T06:42:03.233Z,97.51
2023-01-06T06:44:05.259Z,97.26
2023-01-06T06:46:07.641Z,96.84
2023-01-06T06:48:09.177Z,97.03
2023-01-06T06:50:12.243Z,96.74
2023-01-06T06:52:13.703Z,96.55
2023-01-06T06:54:15.174Z,96.39
2023-01-06T06:56:18.356Z,96.74
2023-01-06T06:58:19.925Z,96.10
2023-01-06T07:00:21.377Z,95.57
2023-01-06T07:02:22.922Z,95.63
2023-01-06T07:04:24.492Z,95.92
2023-01-06T07:06:28.815Z,95.49
2023-01-06T07:08:33.037Z,95.19
2023-01-06T07:10:34.633Z,95.08
2023-01-06T07:12:36.109Z,94.96
2023-01-06T07:14:37.653Z,94.46
2023-01-06T07:16:39.144Z,94.54
2023-01-06T07:18:40.680Z,94.72
2023-01-06T07:20:48.569Z,94.48
2023-01-06T07:22:50.046Z,93.99
2023-01-06T07:24:51.543Z,94.07
2023-01-06T07:26:53.015Z,94.56
2023-01-06T07:28:54.478Z,94.56
2023-01-06T07:30:56.152Z,93.94
2023-01-06T07:32:57.645Z,93.47
2023-01-06T07:34:59.133Z,93.55
2023-01-06T07:37:00.768Z,93.34
2023-01-06T07:39:02.252Z,92.78
2023-01-06T07:41:03.847Z,92.79
2023-01-06T07:43:09.306Z,92.63
2023-01-06T07:45:11.474Z,93.11
2023-01-06T07:47:13.898Z,93.05
2023-01-06T07:49:15.626Z,92.49
2023-01-06T07:51:17.142Z,92.40
2023-01-06T07:53:18.811Z,92.40
2023-01-06T07:55:20.295Z,92.19
2023-01-06T07:57:21.838Z,93.08
2023-01-06T07:59:23.389Z,93.38
2023-01-06T08:01:24.990Z,93.85
2023-01-06T08:03:26.577Z,93.22
2023-01-06T08:05:28.304Z,93.90
2023-01-06T08:07:29.894Z,93.64
2023-01-06T08:09:31.406Z,93.70
2023-01-06T08:11:32.873Z,93.25
2023-01-06T08:13:34.567Z,93.26
2023-01-06T08:15:37.709Z,93.46
2023-01-06T08:17:39.314Z,93.58
2023-01-06T08:19:40.813Z,93.67
2023-01-06T08:21:42.272Z,94.06
2023-01-06T08:23:43.797Z,94.95
2023-01-06T08:25:45.256Z,95.05
2023-01-06T08:27:46.740Z,95.92
2023-01-06T08:29:50.177Z,95.31
2023-01-06T08:31:56.902Z,96.36
2023-01-06T08:34:07.344Z,96.08
2023-01-06T08:36:11.601Z,96.82
2023-01-06T08:38:13.444Z,96.72
2023-01-06T08:40:14.912Z,97.19
2023-01-06T08:42:16.466Z,97.63
2023-01-06T08:44:18.752Z,97.22
2023-01-06T08:46:20.746Z,97.89
2023-01-06T08:48:22.249Z,98.66
2023-01-06T08:50:25.851Z,99.36
2023-01-06T08:52:27.998Z,99.37
2023-01-06T08:54:30.049Z,100.00
2023-01-06T08:56:32.434Z,100.00
2023-01-06T08:58:33.915Z,100.00
2023-01-06T09:00:36.888Z,100.00
2023-01-06T09:02:38.388Z,100.00
2023-01-06T09:04:39.999Z,100.00
2023-01-06T09:06:43.292Z,100.00
2023-01-06T09:08:45.245Z,100.00
2023-01-06T09:10:46.767Z,100.00
2023-01-06T09:12:48.363Z,100.00
2023-01-06T09:14:49.872Z,100.00
2023-01-06T09:16:51.686Z,100.00
2023-01-06T09:18:53.404Z,100.00
2023-01-06T09:20:54.856Z,100.00
2023-01-06T09:22:56.326Z,100.00
2023-01-06T09:24:57.788Z,100.00
2023-01-06T09:26:59.229Z,100.00
2023-01-06T09:29:00.704Z,100.00
2023-01-06T09:31:02.332Z,100.00
2023-01-06T09:33:03.881Z,100.00
2023-01-06T09:35:05.809Z,100.00
2023-01-06T09:37:07.684Z,100.00
2023-01-06T09:39:09.188Z,100.00
2023-01-06T09:41:19.404Z,100.00
2023-01-06T09:43:38.460Z,100.00
2023-01-06T09:45:53.370Z,100.00
2023-01-06T09:48:00.813Z,100.00
2023-01-06T09:50:08.954Z,100.00
2023-01-06T09:52:31.369Z,100.00
2023-01-06T09:54:42.137Z,100.00
2023-01-06T09:56:47.117Z,100.00
2023-01-06T09:58:55.697Z,100.00
2023-01-06T10:01:02.887Z,100.00
2023-01-06T10:03:05.857Z,100.00
2023-01-06T10:05:22.452Z,100.00
2023-01-06T10:07:34.170Z,100.00
2023-01-06T10:09:44.373Z,100.00
2023-01-06T10:11:57.184Z,100.00
2023-01-06T10:14:14.216Z,100.00
2023-01-06T10:16:24.485Z,100.00
2023-01-06T10:18:51.987Z,100.00
2023-01-06T10:20:59.533Z,100.00
2023-01-06T10:23:25.937Z,100.00
2023-01-06T10:25:34.834Z,100.00
2023-01-06T10:27:40.644Z,100.00
2023-01-06T10:29:43.384Z,100.00
2023-01-06T10:31:48.525Z,100.00
2023-01-06T10:33:55.103Z,99.82
2023-01-06T10:35:58.416Z,99.47
2023-01-06T10:38:04.698Z,98.22
2023-01-06T10:40:27.058Z,97.74
2023-01-06T10:42:57.280Z,97.23
2023-01-06T10:44:58.793Z,97.39
2023-01-06T10:47:00.348Z,96.14
2023-01-06T10:49:08.410Z,95.88
2023-01-06T10:51:31.371Z,94.88
2023-01-06T10:53:32.954Z,94.25
2023-01-06T10:55:52.942Z,92.38
2023-01-06T10:57:58.619Z,90.65
2023-01-06T11:00:12.665Z,88.92
2023-01-06T11:02:23.808Z,88.23
2023-01-06T11:04:27.936Z,85.08
2023-01-06T11:06:31.510Z,84.72
2023-01-06T11:08:33.885Z,80.96
2023-01-06T11:10:39.587Z,78.13
2023-01-06T11:12:45.924Z,75.34
2023-01-06T11:15:07.800Z,72.17
2023-01-06T11:17:14.985Z,69.61
2023-01-06T11:19:33.201Z,69.64
2023-01-06T11:21:42.237Z,66.75
2023-01-06T11:23:46.734Z,66.63
2023-01-06T11:26:10.395Z,67.32
2023-01-06T11:28:13.673Z,68.02
2023-01-06T11:30:31.200Z,67.26
2023-01-06T11:32:32.750Z,66.11
2023-01-06T11:34:34.761Z,64.16
2023-01-06T11:36:46.563Z,64.35
2023-01-06T11:38:52.414Z,62.75
2023-01-06T11:40:54.415Z,63.22
2023-01-06T11:43:03.392Z,64.13
2023-01-06T11:45:05.758Z,63.11
2023-01-06T11:47:20.372Z,59.93
2023-01-06T11:49:29.058Z,62.42
2023-01-06T11:51:32.193Z,63.08
2023-01-06T11:53:34.471Z,67.19
2023-01-06T11:55:35.974Z,66.03
2023-01-06T11:57:50.737Z,66.83
2023-01-06T12:00:13.716Z,66.67
2023-01-06T12:02:30.502Z,66.51
2023-01-06T12:04:50.240Z,71.63
2023-01-06T12:06:59.913Z,68.35
2023-01-06T12:09:13.146Z,68.03
2023-01-06T12:11:21.099Z,67.75
2023-01-06T12:13:23.748Z,68.58
2023-01-06T12:15:29.159Z,69.54
2023-01-06T12:17:57.862Z,69.24
2023-01-06T12:20:05.951Z,69.27
2023-01-06T12:22:22.426Z,69.82
2023-01-06T12:24:25.519Z,70.29
2023-01-06T12:26:28.235Z,70.88
2023-01-06T12:28:37.579Z,70.69
2023-01-06T12:31:00.404Z,71.12
2023-01-06T12:33:17.574Z,71.27
2023-01-06T12:35:23.994Z,71.56
2023-01-06T12:37:34.372Z,71.63
2023-01-06T12:39:47.156Z,70.31
2023-01-06T12:42:10.603Z,69.76
2023-01-06T12:44:30.478Z,69.54
2023-01-06T12:46:42.603Z,68.93
2023-01-06T12:48:52.872Z,69.27
2023-01-06T12:51:04.065Z,68.91
2023-01-06T12:53:20.518Z,68.95
2023-01-06T12:55:51.732Z,70.68
2023-01-06T12:58:05.292Z,70.12
2023-01-06T13:00:22.642Z,70.08
2023-01-06T13:02:29.799Z,69.41
2023-01-06T13:04:37.263Z,69.20
2023-01-06T13:07:06.137Z,70.08
2023-01-06T13:09:23.354Z,70.48
2023-01-06T13:11:39.990Z,70.83
2023-01-06T13:14:00.138Z,71.65
2023-01-06T13:16:09.022Z,72.29
2023-01-06T13:18:19.195Z,72.13
2023-01-06T13:20:26.116Z,72.45
2023-01-06T13:23:07.180Z,72.19
2023-01-06T13:25:43.553Z,72.85
2023-01-06T13:27:50.881Z,72.91
2023-01-06T13:30:00.800Z,73.00
2023-01-06T13:32:08.208Z,72.77
2023-01-06T13:34:26.700Z,71.32
2023-01-06T13:37:05.901Z,71.35
2023-01-06T13:39:09.712Z,72.59
2023-01-06T13:41:16.558Z,72.49
2023-01-06T13:43:23.581Z,72.57
2023-01-06T13:45:35.914Z,72.84
2023-01-06T13:47:38.160Z,73.41
2023-01-06T13:49:41.544Z,73.90
2023-01-06T13:51:44.357Z,73.91
2023-01-06T13:53:47.004Z,72.98
2023-01-06T13:56:08.935Z,74.16
2023-01-06T13:58:34.360Z,73.10
2023-01-06T14:00:35.837Z,73.17
2023-01-06T14:02:39.902Z,73.09
2023-01-06T14:04:43.977Z,72.53
2023-01-06T14:06:46.655Z,72.68
2023-01-06T14:08:51.436Z,73.10
2023-01-06T14:11:02.313Z,73.33
2023-01-06T14:13:35.693Z,73.35
2023-01-06T14:18:31.025Z,73.55
2023-01-06T14:20:38.240Z,74.14
2023-01-06T14:22:40.488Z,74.35
2023-01-06T14:25:01.411Z,74.69
2023-01-06T14:27:08.163Z,74.33
2023-01-06T14:29:40.814Z,74.56
2023-01-06T14:31:42.475Z,75.08
2023-01-06T14:33:44.938Z,75.69
2023-01-06T14:35:47.724Z,75.58
2023-01-06T14:37:53.324Z,75.93
2023-01-06T14:39:56.572Z,76.07
2023-01-06T14:42:05.067Z,76.39
2023-01-06T14:44:16.973Z,76.63
2023-01-06T14:46:26.763Z,76.92
2023-01-06T14:48:32.407Z,76.76
2023-01-06T14:50:47.121Z,77.95
2023-01-06T14:52:57.924Z,78.00
2023-01-06T14:55:00.474Z,77.54
2023-01-06T14:57:03.592Z,77.61
2023-01-06T14:59:14.108Z,78.11
2023-01-06T15:01:25.182Z,77.48
2023-01-06T15:03:28.493Z,77.59
2023-01-06T15:05:36.072Z,77.94
2023-01-06T15:07:37.519Z,78.24
2023-01-06T15:09:38.994Z,77.26
2023-01-06T15:11:42.710Z,77.42
2023-01-06T15:13:44.990Z,77.45
2023-01-06T15:15:54.122Z,77.47
2023-01-06T15:17:57.529Z,76.53
2023-01-06T15:19:59.233Z,77.25
2023-01-06T15:22:05.432Z,77.57
2023-01-06T15:24:20.376Z,77.41
2023-01-06T15:26:27.692Z,78.13
2023-01-06T15:28:31.511Z,78.16
2023-01-06T15:30:36.513Z,78.40
2023-01-06T15:32:41.032Z,78.70
2023-01-06T15:34:46.532Z,78.53
2023-01-06T15:36:50.885Z,78.41
2023-01-06T15:38:54.421Z,78.23
2023-01-06T15:40:56.015Z,78.40
2023-01-06T15:42:57.844Z,77.72
2023-01-06T15:45:01.444Z,78.70
2023-01-06T15:47:06.679Z,78.53
2023-01-06T15:49:21.435Z,78.87
2023-01-06T15:51:22.957Z,79.04
2023-01-06T15:53:28.254Z,79.85
2023-01-06T15:55:32.050Z,79.19
2023-01-06T15:57:38.985Z,79.35
2023-01-06T15:59:42.191Z,80.12
2023-01-06T16:01:50.265Z,79.77
2023-01-06T16:03:54.943Z,80.57
2023-01-06T16:06:14.764Z,79.70
2023-01-06T16:08:25.982Z,80.88
2023-01-06T16:10:38.493Z,80.81
2023-01-06T16:12:40.059Z,80.28
2023-01-06T16:14:46.059Z,80.83
2023-01-06T16:16:47.567Z,80.92
2023-01-06T16:18:51.269Z,81.14
2023-01-06T16:20:53.005Z,81.79
2023-01-06T16:22:56.121Z,81.61
2023-01-06T16:25:00.619Z,81.63
2023-01-06T16:27:05.964Z,81.64
2023-01-06T16:29:29.179Z,81.82
2023-01-06T16:31:36.396Z,81.93
2023-01-06T16:33:45.793Z,82.21
2023-01-06T16:35:52.137Z,82.46
2023-01-06T16:37:54.075Z,82.51
2023-01-06T16:39:59.215Z,82.99
2023-01-06T16:42:00.639Z,82.79
2023-01-06T16:44:02.066Z,83.55
2023-01-06T16:46:13.762Z,83.43
2023-01-06T16:48:16.787Z,83.66
2023-01-06T16:50:22.649Z,83.69
2023-01-06T16:52:25.570Z,83.99
2023-01-06T16:54:27.206Z,84.27
2023-01-06T16:56:29.247Z,84.05
2023-01-06T16:58:32.899Z,83.95
2023-01-06T17:00:39.734Z,83.66
2023-01-06T17:02:42.259Z,84.36
2023-01-06T17:04:45.441Z,83.92
2023-01-06T17:06:47.002Z,84.41
2023-01-06T17:08:49.359Z,83.99
2023-01-06T17:10:51.910Z,83.78
2023-01-06T17:13:20.041Z,83.26
2023-01-06T17:15:21.675Z,83.00
2023-01-06T17:17:23.274Z,83.55
2023-01-06T17:19:28.694Z,83.03
2023-01-06T17:21:37.254Z,83.13
2023-01-06T17:24:02.477Z,83.79
2023-01-06T17:26:11.993Z,83.26
2023-01-06T17:28:22.058Z,83.57
2023-01-06T17:30:23.530Z,83.34
2023-01-06T17:32:32.593Z,83.35
2023-01-06T17:34:36.599Z,83.80
2023-01-06T17:36:40.233Z,83.86
2023-01-06T17:38:44.778Z,84.34
2023-01-06T17:40:46.364Z,83.68
2023-01-06T17:43:00.844Z,84.22
2023-01-06T17:45:16.513Z,83.55
2023-01-06T17:47:17.903Z,84.42
2023-01-06T17:49:19.299Z,84.53
2023-01-06T17:51:20.903Z,84.15
2023-01-06T17:53:46.826Z,84.84
2023-01-06T17:55:49.854Z,83.89
2023-01-06T17:57:55.303Z,83.66
2023-01-06T17:59:57.566Z,83.90
2023-01-06T18:02:01.131Z,83.72
2023-01-06T18:04:06.510Z,84.42
2023-01-06T18:06:20.212Z,83.83
2023-01-06T18:08:21.988Z,83.70
2023-01-06T18:10:23.479Z,83.50
2023-01-06T18:12:25.178Z,83.87
2023-01-06T18:14:33.591Z,83.55
2023-01-06T18:16:35.475Z,83.87
2023-01-06T18:18:42.013Z,84.25
2023-01-06T18:20:58.734Z,84.39
2023-01-06T18:23:00.434Z,84.28
2023-01-06T18:25:02.351Z,84.37
2023-01-06T18:27:22.123Z,84.49
2023-01-06T18:29:34.208Z,84.59
2023-01-06T18:31:39.317Z,84.23
2023-01-06T18:33:40.879Z,84.34
2023-01-06T18:35:42.792Z,84.40
2023-01-06T18:37:44.915Z,84.71
2023-01-06T18:39:50.015Z,84.87
2023-01-06T18:42:17.175Z,84.93
2023-01-06T18:44:20.456Z,85.46
2023-01-06T18:46:22.129Z,85.20
2023-01-06T18:48:27.184Z,85.86
2023-01-06T18:50:42.892Z,85.21
2023-01-06T18:52:46.188Z,86.00
2023-01-06T18:54:47.743Z,85.94
2023-01-06T18:56:51.257Z,86.11
2023-01-06T18:58:57.179Z,86.14
2023-01-06T19:01:11.228Z,86.41
2023-01-06T19:03:57.395Z,86.98
2023-01-06T19:06:10.764Z,86.90
2023-01-06T19:08:22.861Z,87.47
2023-01-06T19:10:27.898Z,87.57
2023-01-06T19:12:39.853Z,87.30
2023-01-06T19:14:44.422Z,87.48
2023-01-06T19:16:54.794Z,88.03
2023-01-06T19:19:08.520Z,88.08
2023-01-06T19:21:14.682Z,87.63
2023-01-06T19:23:22.915Z,88.18
2023-01-06T19:25:43.062Z,87.61
2023-01-06T19:27:48.241Z,87.96
2023-01-06T19:29:51.724Z,87.43
2023-01-06T19:31:56.716Z,87.98
2023-01-06T19:34:03.786Z,87.82
2023-01-06T19:36:40.488Z,87.42
2023-01-06T19:38:44.062Z,88.09
2023-01-06T19:40:45.622Z,87.73
2023-01-06T19:42:47.102Z,87.95
2023-01-06T19:44:50.343Z,88.56
2023-01-06T19:46:52.169Z,88.38
2023-01-06T19:48:55.662Z,88.89
2023-01-06T19:51:15.769Z,89.06
2023-01-06T19:53:43.343Z,89.42
2023-01-06T19:55:44.838Z,89.65
2023-01-06T19:57:51.495Z,89.49
2023-01-06T19:59:54.227Z,89.77
2023-01-06T20:02:07.719Z,89.59
2023-01-06T20:04:23.900Z,89.54
2023-01-06T20:06:25.335Z,89.64
2023-01-06T20:08:27.005Z,89.56
2023-01-06T20:10:28.494Z,89.06
2023-01-06T20:12:30.039Z,89.59
2023-01-06T20:14:31.517Z,89.51
2023-01-06T20:16:33.340Z,89.51
2023-01-06T20:18:34.980Z,89.15
2023-01-06T20:20:36.603Z,89.37
2023-01-06T20:22:38.079Z,89.57
2023-01-06T20:24:39.930Z,89.29
2023-01-06T20:26:41.774Z,89.39
2023-01-06T20:28:43.599Z,88.77
2023-01-06T20:30:46.428Z,89.79
2023-01-06T20:32:48.015Z,89.76
2023-01-06T20:34:49.527Z,89.96
2023-01-06T20:36:51.098Z,89.70
2023-01-06T20:38:52.744Z,89.30
2023-01-06T20:40:54.341Z,89.24
2023-01-06T20:42:56.021Z,88.58
2023-01-06T20:44:57.724Z,88.37
2023-01-06T20:46:59.183Z,88.50
2023-01-06T20:49:00.770Z,88.19
2023-01-06T20:51:02.636Z,88.05
2023-01-06T20:53:04.223Z,88.21
2023-01-06T20:55:06.148Z,88.11
2023-01-06T20:57:07.763Z,88.25
2023-01-06T20:59:09.327Z,88.26
2023-01-06T21:01:10.976Z,88.31
2023-01-06T21:03:12.694Z,88.62
2023-01-06T21:05:14.275Z,88.63
2023-01-06T21:07:15.746Z,89.01
2023-01-06T21:09:17.262Z,88.88
2023-01-06T21:11:18.740Z,88.84
2023-01-06T21:13:23.966Z,89.35
2023-01-06T21:15:28.284Z,89.40
2023-01-06T21:17:29.819Z,89.10
2023-01-06T21:19:31.336Z,89.11
2023-01-06T21:21:32.817Z,89.55
2023-01-06T21:23:34.273Z,89.81
2023-01-06T21:25:36.192Z,89.37
2023-01-06T21:27:37.796Z,89.59
2023-01-06T21:29:39.423Z,90.01
2023-01-06T21:31:41.075Z,89.59
2023-01-06T21:33:42.549Z,90.07
2023-01-06T21:35:44.044Z,89.74
2023-01-06T21:37:45.663Z,90.06
2023-01-06T21:39:48.158Z,89.67
2023-01-06T21:42:08.192Z,89.49
2023-01-06T21:44:09.679Z,89.85
2023-01-06T21:46:11.339Z,89.95
2023-01-06T21:48:14.015Z,89.60
2023-01-06T21:50:15.649Z,90.39
2023-01-06T21:52:17.639Z,90.74
2023-01-06T21:54:19.170Z,90.38
2023-01-06T21:56:20.691Z,90.62
2023-01-06T21:58:23.200Z,89.86
2023-01-06T22:00:24.675Z,90.31
2023-01-06T22:02:26.269Z,90.29
2023-01-06T22:04:27.812Z,89.91
2023-01-06T22:06:29.948Z,90.43
2023-01-06T22:08:32.739Z,90.42
2023-01-06T22:10:36.954Z,89.78
2023-01-06T22:12:41.324Z,89.89
2023-01-06T22:14:43.636Z,90.24
2023-01-06T22:16:45.704Z,90.36
2023-01-06T22:18:47.306Z,90.27
2023-01-06T22:20:48.954Z,89.83
2023-01-06T22:22:50.484Z,90.78
2023-01-06T22:24:53.294Z,91.20
2023-01-06T22:26:54.905Z,90.28
2023-01-06T22:28:56.351Z,91.27
2023-01-06T22:30:58.074Z,91.29
2023-01-06T22:32:59.573Z,90.69
2023-01-06T22:35:01.007Z,91.02
2023-01-06T22:37:02.511Z,91.37
2023-01-06T22:39:04.603Z,91.37
2023-01-06T22:41:07.090Z,91.85
2023-01-06T22:43:08.605Z,92.41
2023-01-06T22:45:11.372Z,93.77
2023-01-06T22:47:12.894Z,94.35
2023-01-06T22:49:15.039Z,95.14
2023-01-06T22:51:16.771Z,96.75
2023-01-06T22:53:18.219Z,96.66
2023-01-06T22:55:19.758Z,96.02
2023-01-06T22:57:21.305Z,96.27
2023-01-06T22:59:22.797Z,96.48
2023-01-06T23:01:24.306Z,96.98
2023-01-06T23:03:26.212Z,97.92
2023-01-06T23:05:28.895Z,98.99
2023-01-06T23:07:30.348Z,98.69
2023-01-06T23:09:31.799Z,98.59
2023-01-06T23:11:35.329Z,98.83
2023-01-06T23:13:38.119Z,99.51
2023-01-06T23:15:39.621Z,100.00
2023-01-06T23:17:41.142Z,100.00
2023-01-06T23:19:42.607Z,100.00
2023-01-06T23:21:44.653Z,100.00
2023-01-06T23:23:47.469Z,100.00
2023-01-06T23:25:48.932Z,100.00
2023-01-06T23:27:50.408Z,100.00
2023-01-06T23:29:51.891Z,100.00
2023-01-06T23:31:53.349Z,100.00
2023-01-06T23:33:57.081Z,100.00
2023-01-06T23:36:02.924Z,100.00
2023-01-06T23:38:04.392Z,100.00
2023-01-06T23:40:06.338Z,100.00
2023-01-06T23:42:07.797Z,100.00
2023-01-06T23:44:14.733Z,100.00
2023-01-06T23:46:19.032Z,100.00
2023-01-06T23:48:20.541Z,100.00
2023-01-06T23:50:22.001Z,100.00
2023-01-06T23:52:23.494Z,100.00
2023-01-06T23:54:24.979Z,100.00
2023-01-06T23:56:28.357Z,100.00
2023-01-06T23:58:32.384Z,100.00
